Elisalex Schulte — 9V9154 — position and weather

sailwx.info

Track history (hours):
 
Tides and Currents Weather Stations Pressure Air Temp Water Temp Dewpoint Dewpoint Depression Visibility Wind Speed Wind Dir Waves Ship Positions

Elisalex Schulte

Last reported at 2016-May-24 02:08 UTC. Time now 2016-May-24 13:52 UTC.
Position N 37°28' W 009°51'.

Length 144 m; draft 8.2 m.

Type: Tanker. MMSI: 563052000.

Date/timePositionNaut miles runAvg speedWind from/ knotsBaromVisibWave heightAir tempDewpointWater temp
2016-May-24 02:08N 37°28' W 009°51'812.8
2016-May-24 01:33N 37°35' W 009°54'1212.5
2016-May-24 00:33N 37°48' W 009°57'1312.7
2016-May-23 23:33N 38°00' W 010°00'1312.9
2016-May-23 22:33N 38°13' W 010°04'1313.3
2016-May-23 21:34N 38°25' W 010°08'1313.1
2016-May-23 20:33N 38°38' W 010°11'1413.7
2016-May-23 19:33N 38°52' W 010°12'1414.3
2016-May-23 18:33N 39°06' W 010°13'1413.7
2016-May-23 17:33N 39°20' W 010°13'1313.2
2016-May-23 16:33N 39°33' W 010°13'  
2016-May-21 06:32N 49°48' W 003°24'2211.0
2016-May-21 04:33N 49°59' W 002°55'9914.0
2016-May-20 21:27N 50°28' W 000°27'1011.5
2016-May-20 20:33N 50°31' W 000°11'1111.2
2016-May-20 19:33N 50°33' E 000°06'1211.7
2016-May-20 18:32N 50°37' E 000°24'4013.4
2016-May-20 15:33N 50°59' E 001°17'1212.5
2016-May-20 14:33N 51°07' E 001°32'1110.9
2016-May-20 13:33N 51°14' E 001°45'1010.5
2016-May-20 12:33N 51°23' E 001°53'1110.6
2016-May-20 11:33N 51°32' E 002°04'1211.8
2016-May-20 10:32N 51°40' E 002°17'16212.5
2016-May-19 21:33N 54°03' E 004°25'1613.0
2016-May-19 20:18N 54°16' E 004°40'28412.3
2016-May-18 21:15N 57°50' E 010°15'1112.5
2016-May-18 20:22N 57°49' E 010°36'911.6
2016-May-18 19:33N 57°47' E 010°53'1111.4
2016-May-18 18:33N 57°42' E 011°12'1211.6
2016-May-18 17:33N 57°37' E 011°32'9 8.8
2016-May-18 16:33N 57°40' E 011°47'3 3.0
2016-May-18 15:33N 57°41' E 011°53'0 0.0
2016-May-18 14:33N 57°41' E 011°53'0 0.0
2016-May-18 13:33N 57°41' E 011°53'0 0.0
2016-May-18 12:33N 57°41' E 011°53'0 0.0
2016-May-18 11:33N 57°41' E 011°53'0 0.0
2016-May-18 10:33N 57°41' E 011°53'0 0.0
2016-May-18 09:33N 57°41' E 011°53'0 0.0
2016-May-18 08:33N 57°41' E 011°53'0 0.0
2016-May-18 07:33N 57°41' E 011°53'0 0.0
2016-May-18 06:33N 57°41' E 011°53'0 0.0
2016-May-18 05:33N 57°41' E 011°53'0 0.0
2016-May-18 04:33N 57°41' E 011°53'0 0.0
2016-May-18 03:33N 57°41' E 011°53'0 0.0
2016-May-18 02:33N 57°41' E 011°53'0 0.0
2016-May-18 01:33N 57°41' E 011°53'0 0.0
2016-May-18 00:33N 57°41' E 011°53'0 0.0
2016-May-17 23:33N 57°41' E 011°53'0 0.0
2016-May-17 22:33N 57°41' E 011°53'0 0.0
2016-May-17 21:33N 57°41' E 011°53'0 0.0
2016-May-17 20:33N 57°41' E 011°53'0 0.0
2016-May-17 19:33N 57°41' E 011°53'0 0.0
2016-May-17 18:33N 57°41' E 011°53'0 0.0
2016-May-17 17:33N 57°41' E 011°53'0 0.0
2016-May-17 16:33N 57°41' E 011°53'0 0.0
2016-May-17 15:33N 57°41' E 011°53'0 0.0
2016-May-17 14:33N 57°41' E 011°53'0 0.0
2016-May-17 13:33N 57°41' E 011°53'0 0.0
2016-May-17 12:33N 57°41' E 011°53'0 0.0
2016-May-17 11:33N 57°41' E 011°53'0 0.0
2016-May-17 10:33N 57°41' E 011°53'0 0.0
2016-May-17 09:33N 57°41' E 011°53'0 0.0
2016-May-17 08:33N 57°41' E 011°53'0 0.0
2016-May-17 07:33N 57°41' E 011°53'0 0.4
2016-May-17 06:33N 57°41' E 011°52'9 8.6
2016-May-17 05:33N 57°36' E 011°40'2 2.0
2016-May-17 04:31N 57°34' E 011°40'0 0.0
2016-May-17 03:31N 57°34' E 011°40'0 0.0
2016-May-17 02:28N 57°34' E 011°40'0 0.0
2016-May-17 01:31N 57°34' E 011°40'0 0.0
2016-May-17 00:31N 57°34' E 011°40'0 0.0
2016-May-16 23:31N 57°34' E 011°40'0 0.0
2016-May-16 22:31N 57°34' E 011°40'0 0.0
2016-May-16 21:31N 57°34' E 011°40'0 0.0
2016-May-16 20:31N 57°34' E 011°40'0 0.0
2016-May-16 19:31N 57°34' E 011°40'0 0.0
2016-May-16 18:31N 57°34' E 011°40'0 0.0
2016-May-16 17:31N 57°34' E 011°40'0 0.0
2016-May-16 16:31N 57°34' E 011°40'0 0.0
2016-May-16 15:31N 57°34' E 011°40'0 0.0
2016-May-16 14:31N 57°34' E 011°40'0 0.0
2016-May-16 13:31N 57°34' E 011°40'0 0.0
2016-May-16 12:31N 57°34' E 011°40'0 0.0
2016-May-16 11:31N 57°34' E 011°40'0 0.0
2016-May-16 10:31N 57°34' E 011°40'0 0.0
2016-May-16 09:31N 57°34' E 011°40'0 0.0
2016-May-16 08:31N 57°34' E 011°40'0 0.0
2016-May-16 07:31N 57°34' E 011°40'0 0.0
2016-May-16 06:31N 57°34' E 011°40'0 0.0
2016-May-16 05:31N 57°34' E 011°40'0 0.0
2016-May-16 04:31N 57°34' E 011°40'0 0.0
2016-May-16 03:31N 57°34' E 011°40'0 0.0
2016-May-16 02:31N 57°34' E 011°40'0 0.0
2016-May-16 01:31N 57°34' E 011°40'0 0.0
2016-May-16 00:34N 57°34' E 011°40'0 0.0
2016-May-15 23:31N 57°34' E 011°40'0 0.0
2016-May-15 22:31N 57°34' E 011°40'0 0.0
2016-May-15 21:34N 57°34' E 011°40'0 0.0
2016-May-15 20:30N 57°34' E 011°40'0 0.1
2016-May-15 19:34N 57°34' E 011°40'1010.1
2016-May-15 18:33N 57°38' E 011°23'1313.4
2016-May-15 17:33N 57°43' E 010°60'1312.9
2016-May-15 16:33N 57°47' E 010°37'1312.8
2016-May-15 15:32N 57°47' E 010°12'  
Track history (hours):
 
Tides and Currents Weather Stations Pressure Air Temp Water Temp Dewpoint Dewpoint Depression Visibility Wind Speed Wind Dir Waves Ship Positions

Elisalex Schulte

Last reported at 2016-May-24 02:08 UTC. Time now 2016-May-24 13:52 UTC.
Position N 37°28' W 009°51'.

Length 144 m; draft 8.2 m.

Type: Tanker. MMSI: 563052000.

Date/timePositionNaut miles runAvg speedWind from/ knotsBaromVisibWave heightAir tempDewpointWater temp
2016-May-24 02:08N 37°28' W 009°51'812.8
2016-May-24 01:33N 37°35' W 009°54'1212.5
2016-May-24 00:33N 37°48' W 009°57'1312.7
2016-May-23 23:33N 38°00' W 010°00'1312.9
2016-May-23 22:33N 38°13' W 010°04'1313.3
2016-May-23 21:34N 38°25' W 010°08'1313.1
2016-May-23 20:33N 38°38' W 010°11'1413.7
2016-May-23 19:33N 38°52' W 010°12'1414.3
2016-May-23 18:33N 39°06' W 010°13'1413.7
2016-May-23 17:33N 39°20' W 010°13'1313.2
2016-May-23 16:33N 39°33' W 010°13'  
2016-May-21 06:32N 49°48' W 003°24'2211.0
2016-May-21 04:33N 49°59' W 002°55'9914.0
2016-May-20 21:27N 50°28' W 000°27'1011.5
2016-May-20 20:33N 50°31' W 000°11'1111.2
2016-May-20 19:33N 50°33' E 000°06'1211.7
2016-May-20 18:32N 50°37' E 000°24'4013.4
2016-May-20 15:33N 50°59' E 001°17'1212.5
2016-May-20 14:33N 51°07' E 001°32'1110.9
2016-May-20 13:33N 51°14' E 001°45'1010.5
2016-May-20 12:33N 51°23' E 001°53'1110.6
2016-May-20 11:33N 51°32' E 002°04'1211.8
2016-May-20 10:32N 51°40' E 002°17'16212.5
2016-May-19 21:33N 54°03' E 004°25'1613.0
2016-May-19 20:18N 54°16' E 004°40'28412.3
2016-May-18 21:15N 57°50' E 010°15'1112.5
2016-May-18 20:22N 57°49' E 010°36'911.6
2016-May-18 19:33N 57°47' E 010°53'1111.4
2016-May-18 18:33N 57°42' E 011°12'1211.6
2016-May-18 17:33N 57°37' E 011°32'9 8.8
2016-May-18 16:33N 57°40' E 011°47'3 3.0
2016-May-18 15:33N 57°41' E 011°53'0 0.0
2016-May-18 14:33N 57°41' E 011°53'0 0.0
2016-May-18 13:33N 57°41' E 011°53'0 0.0
2016-May-18 12:33N 57°41' E 011°53'0 0.0
2016-May-18 11:33N 57°41' E 011°53'0 0.0
2016-May-18 10:33N 57°41' E 011°53'0 0.0
2016-May-18 09:33N 57°41' E 011°53'0 0.0
2016-May-18 08:33N 57°41' E 011°53'0 0.0
2016-May-18 07:33N 57°41' E 011°53'0 0.0
2016-May-18 06:33N 57°41' E 011°53'0 0.0
2016-May-18 05:33N 57°41' E 011°53'0 0.0
2016-May-18 04:33N 57°41' E 011°53'0 0.0
2016-May-18 03:33N 57°41' E 011°53'0 0.0
2016-May-18 02:33N 57°41' E 011°53'0 0.0
2016-May-18 01:33N 57°41' E 011°53'0 0.0
2016-May-18 00:33N 57°41' E 011°53'0 0.0
2016-May-17 23:33N 57°41' E 011°53'0 0.0
2016-May-17 22:33N 57°41' E 011°53'0 0.0
2016-May-17 21:33N 57°41' E 011°53'0 0.0
2016-May-17 20:33N 57°41' E 011°53'0 0.0
2016-May-17 19:33N 57°41' E 011°53'0 0.0
2016-May-17 18:33N 57°41' E 011°53'0 0.0
2016-May-17 17:33N 57°41' E 011°53'0 0.0
2016-May-17 16:33N 57°41' E 011°53'0 0.0
2016-May-17 15:33N 57°41' E 011°53'0 0.0
2016-May-17 14:33N 57°41' E 011°53'0 0.0
2016-May-17 13:33N 57°41' E 011°53'0 0.0
2016-May-17 12:33N 57°41' E 011°53'0 0.0
2016-May-17 11:33N 57°41' E 011°53'0 0.0
2016-May-17 10:33N 57°41' E 011°53'0 0.0
2016-May-17 09:33N 57°41' E 011°53'0 0.0
2016-May-17 08:33N 57°41' E 011°53'0 0.0
2016-May-17 07:33N 57°41' E 011°53'0 0.4
2016-May-17 06:33N 57°41' E 011°52'9 8.6
2016-May-17 05:33N 57°36' E 011°40'2 2.0
2016-May-17 04:31N 57°34' E 011°40'0 0.0
2016-May-17 03:31N 57°34' E 011°40'0 0.0
2016-May-17 02:28N 57°34' E 011°40'0 0.0
2016-May-17 01:31N 57°34' E 011°40'0 0.0
2016-May-17 00:31N 57°34' E 011°40'0 0.0
2016-May-16 23:31N 57°34' E 011°40'0 0.0
2016-May-16 22:31N 57°34' E 011°40'0 0.0
2016-May-16 21:31N 57°34' E 011°40'0 0.0
2016-May-16 20:31N 57°34' E 011°40'0 0.0
2016-May-16 19:31N 57°34' E 011°40'0 0.0
2016-May-16 18:31N 57°34' E 011°40'0 0.0
2016-May-16 17:31N 57°34' E 011°40'0 0.0
2016-May-16 16:31N 57°34' E 011°40'0 0.0
2016-May-16 15:31N 57°34' E 011°40'0 0.0
2016-May-16 14:31N 57°34' E 011°40'0 0.0
2016-May-16 13:31N 57°34' E 011°40'0 0.0
2016-May-16 12:31N 57°34' E 011°40'0 0.0
2016-May-16 11:31N 57°34' E 011°40'0 0.0
2016-May-16 10:31N 57°34' E 011°40'0 0.0
2016-May-16 09:31N 57°34' E 011°40'0 0.0
2016-May-16 08:31N 57°34' E 011°40'0 0.0
2016-May-16 07:31N 57°34' E 011°40'0 0.0
2016-May-16 06:31N 57°34' E 011°40'0 0.0
2016-May-16 05:31N 57°34' E 011°40'0 0.0
2016-May-16 04:31N 57°34' E 011°40'0 0.0
2016-May-16 03:31N 57°34' E 011°40'0 0.0
2016-May-16 02:31N 57°34' E 011°40'0 0.0
2016-May-16 01:31N 57°34' E 011°40'0 0.0
2016-May-16 00:34N 57°34' E 011°40'0 0.0
2016-May-15 23:31N 57°34' E 011°40'0 0.0
2016-May-15 22:31N 57°34' E 011°40'0 0.0
2016-May-15 21:34N 57°34' E 011°40'0 0.0
2016-May-15 20:30N 57°34' E 011°40'0 0.1
2016-May-15 19:34N 57°34' E 011°40'1010.1
2016-May-15 18:33N 57°38' E 011°23'1313.4
2016-May-15 17:33N 57°43' E 010°60'1312.9
2016-May-15 16:33N 57°47' E 010°37'1312.8
2016-May-15 15:32N 57°47' E 010°12'  

Dump ship's entire track history